Time;durP1;ratioP1;P1;durP2;ratioP2;P2;SDS_P1;SDS_P2;PMS_P1;PMS_P2;Temp;Humidity;BMP_temperature;BMP_pressure;BME280_temperature;BME280_humidity;BME280_pressure;Samples;Min_cycle;Max_cycle;Signal;HPM_P1;HPM_P2
2023/04/20 00:01:53;;;;;;;0.93;0.93;;;10.40;69.00;;;;;;5052614;28;20385;-80
2023/04/20 00:04:19;;;;;;;0.40;0.40;;;10.30;68.90;;;;;;5052116;28;20021;-80
2023/04/20 00:06:44;;;;;;;0.30;0.30;;;10.30;69.10;;;;;;5052453;28;20051;-80
2023/04/20 00:09:14;;;;;;;1.25;1.15;;;10.30;68.90;;;;;;5052002;28;20039;-80
2023/04/20 00:11:39;;;;;;;0.40;0.40;;;10.20;69.50;;;;;;5052181;28;20044;-81
2023/04/20 00:14:06;;;;;;;1.95;1.23;;;10.40;68.60;;;;;;5052022;28;20021;-80
2023/04/20 00:16:31;;;;;;;0.65;0.63;;;10.20;68.70;;;;;;5052760;28;20033;-81
2023/04/20 00:18:59;;;;;;;0.93;0.85;;;10.30;68.60;;;;;;5055850;28;20036;-81
2023/04/20 00:21:25;;;;;;;4.15;1.00;;;10.20;68.70;;;;;;5055979;28;20063;-79
2023/04/20 00:23:50;;;;;;;3.35;0.45;;;10.20;68.60;;;;;;5055905;28;20119;-80
2023/04/20 00:26:17;;;;;;;0.20;0.20;;;10.20;68.50;;;;;;5056160;28;20094;-81
2023/04/20 00:28:49;;;;;;;0.67;0.67;;;10.30;67.80;;;;;;5037484;28;20026;-80
2023/04/20 00:31:15;;;;;;;0.45;0.45;;;10.30;67.40;;;;;;5038067;28;20030;-80
2023/04/20 00:33:41;;;;;;;1.65;0.45;;;10.30;68.10;;;;;;5055766;28;20052;-80
2023/04/20 00:36:07;;;;;;;1.58;1.23;;;10.20;67.40;;;;;;5055980;28;20396;-81
2023/04/20 00:38:34;;;;;;;0.22;0.22;;;10.10;67.60;;;;;;5034264;28;20378;-77
2023/04/20 00:41:00;;;;;;;0.80;0.80;;;10.00;68.10;;;;;;5020331;28;20032;-80
2023/04/20 00:43:26;;;;;;;0.30;0.30;;;10.10;68.00;;;;;;5055746;28;20017;-79
2023/04/20 00:45:52;;;;;;;0.50;0.50;;;10.10;67.80;;;;;;5055385;28;20041;-80
2023/04/20 00:48:19;;;;;;;0.10;0.10;;;10.10;68.00;;;;;;5055598;28;20109;-80
2023/04/20 00:50:45;;;;;;;0.20;0.20;;;10.10;67.60;;;;;;5037241;28;20025;-81
2023/04/20 00:53:12;;;;;;;1.05;0.45;;;10.30;67.80;;;;;;5055724;28;20021;-81
2023/04/20 00:55:38;;;;;;;0.77;0.77;;;10.20;67.40;;;;;;5055330;28;20040;-82
2023/04/20 00:58:05;;;;;;;2.10;0.88;;;10.10;66.50;;;;;;5055141;28;20086;-81
2023/04/20 01:00:32;;;;;;;1.35;0.77;;;10.10;66.30;;;;;;5055261;28;20057;-80
2023/04/20 01:02:58;;;;;;;0.57;0.57;;;10.20;66.50;;;;;;5055337;28;20131;-81
2023/04/20 01:05:24;;;;;;;0.50;0.50;;;10.10;66.60;;;;;;5055192;28;20032;-80
2023/04/20 01:07:50;;;;;;;2.05;1.38;;;10.00;66.70;;;;;;5054002;28;20112;-80
2023/04/20 01:10:16;;;;;;;0.45;0.32;;;9.90;66.80;;;;;;5042245;28;20159;-81
2023/04/20 01:12:41;;;;;;;0.32;0.32;;;9.80;67.10;;;;;;5033683;28;20030;-81
2023/04/20 01:15:09;;;;;;;0.43;0.38;;;9.90;68.00;;;;;;5066051;28;20095;-81
2023/04/20 01:17:38;;;;;;;0.73;0.73;;;9.80;68.50;;;;;;5074837;28;20058;-81
2023/04/20 01:20:13;;;;;;;0.30;0.30;;;9.60;69.10;;;;;;5056865;28;20020;-81
2023/04/20 01:22:49;;;;;;;0.20;0.20;;;9.70;68.40;;;;;;5074786;28;20029;-80
2023/04/20 01:25:16;;;;;;;0.20;0.20;;;9.70;69.20;;;;;;5074817;28;20048;-81
2023/04/20 01:27:42;;;;;;;0.45;0.45;;;9.60;69.70;;;;;;5039656;28;20029;-81
2023/04/20 01:30:08;;;;;;;0.20;0.20;;;9.40;70.30;;;;;;5056719;28;20095;-80
2023/04/20 01:32:36;;;;;;;0.30;0.30;;;9.30;70.20;;;;;;5074549;28;20029;-82
2023/04/20 01:35:03;;;;;;;0.55;0.47;;;9.40;70.40;;;;;;5056684;28;20115;-81
2023/04/20 01:37:29;;;;;;;0.47;0.40;;;9.40;70.50;;;;;;5074654;28;20036;-81
2023/04/20 01:39:55;;;;;;;0.75;0.40;;;9.30;70.90;;;;;;5066122;28;20060;-82
2023/04/20 01:42:22;;;;;;;0.43;0.43;;;9.30;70.40;;;;;;5074524;28;20055;-80
2023/04/20 01:44:48;;;;;;;0.10;0.10;;;9.30;69.90;;;;;;5056587;28;20043;-81
2023/04/20 01:47:14;;;;;;;0.20;0.20;;;9.30;70.30;;;;;;5073061;28;20031;-81
2023/04/20 01:49:40;;;;;;;0.15;0.15;;;9.20;70.90;;;;;;5073033;28;20012;-81
2023/04/20 01:52:06;;;;;;;0.20;0.20;;;9.10;71.60;;;;;;5074458;28;20028;-81
2023/04/20 01:54:32;;;;;;;0.10;0.10;;;9.20;71.80;;;;;;5073921;28;20119;-83
2023/04/20 01:56:58;;;;;;;0.20;0.20;;;8.90;72.80;;;;;;5074000;28;20116;-81
2023/04/20 01:59:24;;;;;;;0.28;0.28;;;8.90;73.10;;;;;;5073165;28;20024;-80
2023/04/20 02:01:50;;;;;;;0.55;0.55;;;9.10;72.60;;;;;;5072903;28;20101;-80
2023/04/20 02:04:16;;;;;;;2.33;1.02;;;8.90;72.50;;;;;;5072979;28;20123;-80
2023/04/20 02:06:42;;;;;;;1.35;0.35;;;8.80;73.30;;;;;;5073842;28;20028;-80
2023/04/20 02:09:08;;;;;;;1.17;0.63;;;8.80;73.10;;;;;;5072383;28;20082;-79
2023/04/20 02:11:34;;;;;;;0.10;0.10;;;8.80;73.10;;;;;;5072203;28;20028;-80
2023/04/20 02:14:00;;;;;;;1.45;0.80;;;8.80;72.50;;;;;;5072830;28;20032;-81
2023/04/20 02:16:28;;;;;;;0.52;0.50;;;8.80;73.00;;;;;;5070552;28;20027;-77
2023/04/20 02:18:54;;;;;;;1.98;0.93;;;8.80;73.10;;;;;;5073842;28;20025;-81
2023/04/20 02:21:20;;;;;;;0.20;0.20;;;8.80;73.60;;;;;;5072562;28;20521;-82
2023/04/20 02:23:46;;;;;;;0.20;0.20;;;8.80;73.60;;;;;;5071883;28;20043;-82
2023/04/20 02:26:11;;;;;;;0.20;0.20;;;8.80;74.00;;;;;;5072341;28;20063;-80
2023/04/20 02:28:39;;;;;;;1.83;1.00;;;8.80;74.00;;;;;;5072151;28;20047;-81
2023/04/20 02:31:05;;;;;;;0.50;0.40;;;8.80;73.40;;;;;;5073796;28;20419;-81
2023/04/20 02:33:31;;;;;;;0.30;0.30;;;8.80;73.40;;;;;;5055617;28;20479;-81
2023/04/20 02:35:56;;;;;;;0.70;0.55;;;8.60;73.40;;;;;;5073400;28;20123;-80
2023/04/20 02:38:22;;;;;;;0.57;0.57;;;8.70;73.10;;;;;;5071662;28;20111;-81
2023/04/20 02:40:48;;;;;;;0.22;0.22;;;8.70;73.30;;;;;;5054939;28;20032;-81
2023/04/20 02:43:15;;;;;;;0.60;0.60;;;8.50;73.50;;;;;;5055386;28;20487;-81
2023/04/20 02:45:41;;;;;;;0.35;0.35;;;8.40;73.30;;;;;;5055007;28;20032;-80
2023/04/20 02:48:08;;;;;;;2.25;0.68;;;8.40;72.80;;;;;;5055361;28;20082;-80
2023/04/20 02:50:37;;;;;;;2.08;1.98;;;8.40;72.50;;;;;;5055122;28;20043;-79
2023/04/20 02:53:21;;;;;;;0.50;0.50;;;8.30;72.30;;;;;;5073094;28;20021;-80
2023/04/20 02:55:59;;;;;;;0.38;0.38;;;8.40;71.90;;;;;;5055125;28;20025;-81
2023/04/20 02:58:38;;;;;;;0.47;0.47;;;8.50;71.80;;;;;;5055146;28;20028;-80
2023/04/20 03:01:15;;;;;;;0.20;0.20;;;8.40;71.80;;;;;;5055137;28;20028;-80
2023/04/20 03:03:41;;;;;;;0.20;0.20;;;8.40;72.10;;;;;;5054904;28;20118;-81
2023/04/20 03:06:10;;;;;;;0.10;0.10;;;8.40;72.90;;;;;;5054945;28;20119;-81
2023/04/20 03:08:37;;;;;;;0.10;0.10;;;8.60;72.40;;;;;;5054551;28;20032;-80
2023/04/20 03:11:22;;;;;;;0.10;0.10;;;8.60;72.60;;;;;;5072669;28;20045;-78
2023/04/20 03:13:49;;;;;;;0.10;0.10;;;8.50;73.70;;;;;;5054874;28;20389;-80
2023/04/20 03:16:17;;;;;;;0.17;0.17;;;8.50;74.90;;;;;;5054771;28;20350;-81
2023/04/20 03:18:46;;;;;;;0.10;0.10;;;8.50;75.30;;;;;;5054752;28;20044;-81
2023/04/20 03:21:13;;;;;;;0.10;0.10;;;8.40;75.40;;;;;;5054781;28;20024;-78
2023/04/20 03:23:39;;;;;;;0.50;0.50;;;8.50;75.30;;;;;;5054317;28;20031;-81
2023/04/20 03:26:06;;;;;;;0.20;0.20;;;8.30;75.30;;;;;;5054910;28;20062;-79
2023/04/20 03:28:44;;;;;;;0.10;0.10;;;8.40;75.10;;;;;;5054610;28;20115;-81
2023/04/20 03:31:14;;;;;;;1.75;0.80;;;8.40;75.00;;;;;;5055054;28;20123;-81
2023/04/20 03:33:40;;;;;;;0.10;0.10;;;8.60;74.10;;;;;;5054662;28;20098;-80
2023/04/20 03:36:06;;;;;;;0.20;0.20;;;8.40;73.80;;;;;;5054440;28;20468;-81
2023/04/20 03:38:32;;;;;;;1.65;1.38;;;8.50;74.10;;;;;;5054508;28;20029;-81
2023/04/20 03:40:57;;;;;;;0.60;0.60;;;8.40;74.40;;;;;;5072484;28;20042;-81
2023/04/20 03:43:23;;;;;;;0.20;0.20;;;8.40;74.60;;;;;;5072632;28;20024;-81
2023/04/20 03:45:49;;;;;;;0.10;0.10;;;8.40;75.30;;;;;;5054469;28;20032;-81
2023/04/20 03:48:17;;;;;;;0.10;0.10;;;8.30;76.00;;;;;;5054463;28;20078;-81
2023/04/20 03:50:42;;;;;;;0.25;0.25;;;8.30;76.40;;;;;;5054031;28;20028;-81
2023/04/20 03:53:09;;;;;;;2.92;0.95;;;8.30;77.00;;;;;;5057824;28;20028;-81
2023/04/20 03:55:36;;;;;;;1.55;0.35;;;8.30;77.20;;;;;;5058760;28;20021;-81
2023/04/20 03:58:05;;;;;;;0.43;0.43;;;8.30;77.30;;;;;;5058427;28;20081;-82
2023/04/20 04:00:41;;;;;;;0.10;0.10;;;8.50;78.00;;;;;;5058453;28;20473;-81
2023/04/20 04:03:10;;;;;;;0.13;0.13;;;8.50;78.30;;;;;;5030486;28;20366;-81
2023/04/20 04:05:36;;;;;;;1.00;0.68;;;8.50;79.20;;;;;;5076106;28;20101;-82
2023/04/20 04:08:02;;;;;;;1.08;0.95;;;8.40;80.00;;;;;;5058147;28;20028;-82
2023/04/20 04:10:28;;;;;;;1.67;1.17;;;8.50;80.60;;;;;;5076601;28;20476;-81
2023/04/20 04:12:54;;;;;;;0.10;0.10;;;8.50;80.20;;;;;;5058086;28;20024;-81
2023/04/20 04:15:20;;;;;;;0.95;0.77;;;8.50;80.90;;;;;;5058073;28;20030;-82
2023/04/20 04:18:06;;;;;;;0.38;0.38;;;8.50;81.30;;;;;;5075322;28;20439;-81
2023/04/20 04:20:33;;;;;;;0.38;0.38;;;8.60;81.70;;;;;;5057610;28;20477;-81
2023/04/20 04:23:00;;;;;;;0.85;0.40;;;8.60;82.50;;;;;;5058039;28;20025;-82
2023/04/20 04:25:47;;;;;;;0.50;0.50;;;8.50;83.50;;;;;;5075289;28;20059;-81
2023/04/20 04:28:15;;;;;;;1.35;0.82;;;8.50;84.20;;;;;;5075975;28;20093;-81
2023/04/20 04:31:08;;;;;;;0.10;0.10;;;8.50;84.30;;;;;;5057925;28;20029;-81
2023/04/20 04:33:34;;;;;;;0.10;0.10;;;8.40;85.20;;;;;;5057949;28;20044;-80
2023/04/20 04:36:01;;;;;;;0.68;0.60;;;8.40;85.30;;;;;;5057421;28;20501;-82
2023/04/20 04:38:27;;;;;;;0.10;0.10;;;8.40;85.80;;;;;;5057667;28;20078;-81
2023/04/20 04:40:53;;;;;;;0.40;0.40;;;8.50;85.90;;;;;;5057576;28;20020;-81
2023/04/20 04:43:19;;;;;;;0.80;0.75;;;8.60;86.20;;;;;;5057802;28;20052;-82
2023/04/20 04:45:54;;;;;;;0.20;0.20;;;8.60;86.10;;;;;;5057402;28;20063;-82
2023/04/20 04:48:20;;;;;;;0.90;0.68;;;8.70;86.60;;;;;;5057669;28;20078;-81
2023/04/20 04:50:46;;;;;;;3.60;0.40;;;8.70;86.10;;;;;;5074907;28;20032;-82
2023/04/20 04:53:12;;;;;;;0.20;0.20;;;8.90;86.20;;;;;;5057616;28;20016;-82
2023/04/20 04:55:37;;;;;;;0.80;0.47;;;8.80;86.50;;;;;;5057066;28;20442;-79
2023/04/20 04:58:03;;;;;;;0.10;0.10;;;8.80;86.80;;;;;;5074724;28;20065;-81
2023/04/20 05:00:30;;;;;;;1.95;0.90;;;9.00;86.60;;;;;;5075145;28;20029;-82
2023/04/20 05:02:56;;;;;;;0.70;0.40;;;9.10;87.10;;;;;;5074445;28;20399;-80
2023/04/20 05:05:22;;;;;;;1.10;0.73;;;9.30;86.60;;;;;;5056926;28;20044;-81
2023/04/20 05:07:47;;;;;;;16.60;1.45;;;9.20;85.30;;;;;;5074591;28;20017;-79
2023/04/20 05:10:13;;;;;;;2.20;1.30;;;9.10;86.40;;;;;;5074897;28;20044;-80
2023/04/20 05:12:39;;;;;;;0.25;0.25;;;9.10;87.10;;;;;;5075047;28;20036;-80
2023/04/20 05:15:06;;;;;;;0.30;0.30;;;9.20;87.60;;;;;;5074952;28;20029;-81
2023/04/20 05:17:31;;;;;;;1.55;0.88;;;9.10;87.80;;;;;;5074715;28;20035;-81
2023/04/20 05:19:57;;;;;;;0.20;0.20;;;9.20;88.20;;;;;;5057062;28;20099;-81
2023/04/20 05:22:23;;;;;;;0.77;0.77;;;9.10;87.70;;;;;;5057074;28;20025;-80
2023/04/20 05:24:49;;;;;;;0.20;0.20;;;9.10;89.00;;;;;;5074849;28;20074;-80
2023/04/20 05:27:14;;;;;;;0.40;0.40;;;9.20;89.20;;;;;;5074694;28;20434;-82
2023/04/20 05:29:40;;;;;;;0.40;0.35;;;9.30;87.90;;;;;;5074658;28;20071;-80
2023/04/20 05:32:06;;;;;;;0.10;0.10;;;9.50;86.60;;;;;;5074337;28;20036;-81
2023/04/20 05:34:32;;;;;;;0.10;0.10;;;9.70;86.20;;;;;;5075137;28;20357;-84
2023/04/20 05:36:58;;;;;;;4.95;0.95;;;9.60;86.80;;;;;;5074368;28;20484;-82
2023/04/20 05:39:24;;;;;;;1.10;0.93;;;9.50;87.30;;;;;;5074468;28;20032;-80
2023/04/20 05:41:50;;;;;;;2.28;0.80;;;9.40;87.10;;;;;;5074658;28;20489;-81
2023/04/20 05:44:15;;;;;;;0.47;0.45;;;9.50;87.80;;;;;;5070118;28;20378;-82
2023/04/20 05:46:41;;;;;;;0.95;0.60;;;9.40;88.10;;;;;;5062680;28;20370;-83
2023/04/20 05:49:07;;;;;;;0.15;0.15;;;9.30;89.10;;;;;;5027721;28;20029;-83
2023/04/20 05:51:33;;;;;;;1.35;1.23;;;9.30;89.50;;;;;;5058594;28;20028;-81
2023/04/20 05:54:00;;;;;;;0.10;0.10;;;9.40;89.50;;;;;;5058555;28;20515;-83
2023/04/20 05:56:26;;;;;;;0.10;0.10;;;9.40;90.00;;;;;;5038165;28;20029;-83
2023/04/20 05:58:53;;;;;;;0.30;0.30;;;9.50;90.00;;;;;;5056793;28;20488;-84
2023/04/20 06:01:19;;;;;;;2.13;0.98;;;9.70;89.00;;;;;;5056948;28;20044;-81
2023/04/20 06:03:46;;;;;;;4.10;0.80;;;9.50;89.60;;;;;;5053425;28;20126;-79
2023/04/20 06:06:11;;;;;;;0.60;0.60;;;9.40;90.10;;;;;;5057585;28;20035;-82
2023/04/20 06:08:37;;;;;;;1.00;1.00;;;9.50;90.30;;;;;;5037630;28;20025;-81
2023/04/20 06:11:03;;;;;;;0.40;0.40;;;9.60;90.20;;;;;;5062791;28;20024;-80
2023/04/20 06:13:29;;;;;;;0.22;0.22;;;9.60;90.70;;;;;;5054487;28;20047;-76
2023/04/20 06:15:54;;;;;;;1.30;1.20;;;9.50;90.80;;;;;;5040190;28;20032;-81
2023/04/20 06:18:20;;;;;;;0.93;0.88;;;9.60;91.00;;;;;;5056532;28;20031;-81
2023/04/20 06:20:46;;;;;;;0.57;0.57;;;9.50;91.90;;;;;;5050347;28;20021;-79
2023/04/20 06:23:11;;;;;;;0.65;0.65;;;9.70;92.60;;;;;;5042340;28;20032;-81
2023/04/20 06:25:38;;;;;;;0.20;0.20;;;9.60;93.30;;;;;;5064548;28;20094;-81
2023/04/20 06:28:05;;;;;;;0.20;0.20;;;9.70;94.80;;;;;;5072510;28;20028;-81
2023/04/20 06:30:34;;;;;;;0.52;0.52;;;9.60;95.60;;;;;;5057028;28;20531;-81
2023/04/20 06:33:00;;;;;;;0.82;0.77;;;9.60;97.00;;;;;;5072835;28;20108;-79
2023/04/20 06:35:26;;;;;;;0.10;0.10;;;9.60;98.30;;;;;;5050765;28;20028;-79
2023/04/20 06:37:52;;;;;;;0.88;0.88;;;9.40;99.00;;;;;;5055837;28;20090;-80
2023/04/20 06:40:18;;;;;;;0.40;0.40;;;9.40;99.70;;;;;;5049198;28;20026;-79
2023/04/20 06:42:44;;;;;;;0.73;0.73;;;9.40;99.90;;;;;;5062218;28;20447;-79
2023/04/20 06:45:10;;;;;;;0.93;0.93;;;9.60;99.90;;;;;;5057162;28;20033;-81
2023/04/20 06:47:36;;;;;;;0.88;0.82;;;9.60;99.90;;;;;;5060541;28;20039;-81
2023/04/20 06:50:06;;;;;;;1.25;1.10;;;9.70;99.90;;;;;;5055770;28;20024;-81
2023/04/20 06:52:31;;;;;;;4.57;2.72;;;9.30;99.90;;;;;;5053747;28;20029;-81
2023/04/20 06:54:58;;;;;;;0.47;0.47;;;9.40;99.90;;;;;;5054412;28;20036;-80
2023/04/20 06:57:24;;;;;;;0.22;0.22;;;9.30;99.90;;;;;;5092366;28;20385;-81
2023/04/20 06:59:50;;;;;;;0.38;0.25;;;9.30;99.90;;;;;;5057184;28;20029;-82
2023/04/20 07:02:16;;;;;;;0.22;0.22;;;9.30;99.90;;;;;;5054843;28;20029;-79
2023/04/20 07:04:41;;;;;;;7.93;1.73;;;9.60;99.90;;;;;;5054145;28;20033;-81
2023/04/20 07:07:07;;;;;;;0.82;0.50;;;9.80;99.90;;;;;;5057934;28;20024;-81
2023/04/20 07:09:33;;;;;;;1.02;0.93;;;9.70;99.90;;;;;;5062433;28;20461;-82
2023/04/20 07:11:58;;;;;;;0.75;0.75;;;10.00;99.90;;;;;;5056610;28;20104;-77
2023/04/20 07:14:24;;;;;;;0.17;0.17;;;9.70;99.90;;;;;;5053437;28;20078;-81
2023/04/20 07:16:54;;;;;;;0.17;0.17;;;9.40;99.90;;;;;;5057603;28;20060;-80
2023/04/20 07:19:20;;;;;;;0.80;0.80;;;9.50;99.90;;;;;;5058095;28;20112;-80
2023/04/20 07:21:46;;;;;;;2.92;0.52;;;9.60;99.90;;;;;;5058556;28;20450;-80
2023/04/20 07:24:12;;;;;;;0.40;0.40;;;9.60;99.90;;;;;;5070090;28;20073;-80
2023/04/20 07:26:37;;;;;;;0.13;0.13;;;9.70;99.90;;;;;;5060454;28;20048;-79
2023/04/20 07:29:03;;;;;;;0.63;0.45;;;9.90;99.90;;;;;;5047572;28;20048;-72
2023/04/20 07:31:29;;;;;;;0.43;0.43;;;10.20;99.90;;;;;;5051295;28;20032;-72
2023/04/20 07:33:55;;;;;;;2.17;0.52;;;10.20;99.10;;;;;;5051635;28;20021;-72
2023/04/20 07:36:21;;;;;;;0.10;0.10;;;10.00;99.80;;;;;;5051732;28;20039;-72
2023/04/20 07:38:48;;;;;;;0.80;0.80;;;10.00;99.90;;;;;;5052704;28;20033;-72
2023/04/20 07:41:14;;;;;;;0.75;0.75;;;10.00;99.90;;;;;;5034186;28;20045;-72
2023/04/20 07:43:40;;;;;;;0.55;0.55;;;10.10;99.90;;;;;;5052229;28;20485;-72
2023/04/20 07:46:06;;;;;;;2.17;1.10;;;10.10;99.90;;;;;;5052079;28;20025;-72
2023/04/20 07:48:36;;;;;;;0.65;0.65;;;10.00;99.90;;;;;;5034273;28;20032;-72
2023/04/20 07:51:02;;;;;;;0.17;0.17;;;10.10;99.90;;;;;;5052120;28;20077;-72
2023/04/20 07:53:30;;;;;;;0.52;0.52;;;10.30;99.90;;;;;;5034460;28;20457;-72
2023/04/20 07:55:56;;;;;;;0.80;0.63;;;10.40;99.70;;;;;;5052465;28;20043;-72
2023/04/20 07:58:22;;;;;;;0.55;0.55;;;10.20;99.90;;;;;;5033992;28;20119;-72
2023/04/20 08:00:48;;;;;;;1.23;1.13;;;10.30;99.90;;;;;;5052147;28;20029;-72
2023/04/20 08:03:14;;;;;;;0.20;0.20;;;10.30;99.90;;;;;;5052244;28;20017;-72
2023/04/20 08:05:40;;;;;;;0.57;0.47;;;10.50;99.90;;;;;;5052265;28;20028;-72
2023/04/20 08:08:06;;;;;;;1.08;0.85;;;10.60;99.80;;;;;;5051851;28;20043;-73
2023/04/20 08:10:32;;;;;;;1.15;0.70;;;10.70;99.10;;;;;;5052438;28;20025;-72
2023/04/20 08:12:58;;;;;;;2.78;0.50;;;10.60;99.70;;;;;;5034033;28;20036;-72
2023/04/20 08:15:24;;;;;;;0.20;0.20;;;10.70;99.70;;;;;;5033960;28;20492;-72
2023/04/20 08:17:51;;;;;;;0.10;0.10;;;10.80;99.90;;;;;;5052290;28;20052;-72
2023/04/20 08:20:17;;;;;;;0.20;0.20;;;11.00;99.40;;;;;;5051899;28;20025;-72
2023/04/20 08:22:43;;;;;;;1.20;0.88;;;11.10;99.60;;;;;;5060982;28;20434;-72
2023/04/20 08:25:09;;;;;;;0.68;0.68;;;11.20;98.40;;;;;;5071891;28;20041;-72
2023/04/20 08:27:35;;;;;;;2.35;1.17;;;11.00;98.40;;;;;;5071872;28;20130;-72
2023/04/20 08:30:03;;;;;;;3.95;0.88;;;11.00;99.00;;;;;;5054304;28;20064;-72
2023/04/20 08:32:29;;;;;;;0.43;0.43;;;11.40;98.20;;;;;;5054199;28;20024;-72
2023/04/20 08:34:55;;;;;;;0.10;0.10;;;11.60;97.60;;;;;;5071680;28;20142;-72
2023/04/20 08:37:20;;;;;;;0.85;0.80;;;11.30;98.30;;;;;;5061034;28;20027;-72
2023/04/20 08:39:46;;;;;;;1.75;1.10;;;11.20;98.40;;;;;;5066122;28;20455;-72
2023/04/20 08:42:12;;;;;;;1.95;0.88;;;11.00;98.10;;;;;;5075288;28;20044;-72
2023/04/20 08:44:38;;;;;;;0.57;0.57;;;11.30;98.60;;;;;;5075502;28;20074;-72
2023/04/20 08:47:04;;;;;;;0.90;0.90;;;11.80;97.60;;;;;;5075516;28;20031;-72
2023/04/20 08:49:31;;;;;;;0.55;0.55;;;11.90;97.10;;;;;;5075301;28;20048;-72
2023/04/20 08:51:57;;;;;;;0.10;0.10;;;12.00;96.50;;;;;;5075789;28;20021;-72
2023/04/20 08:54:23;;;;;;;0.30;0.30;;;11.80;97.10;;;;;;5073605;28;20050;-72
2023/04/20 08:56:49;;;;;;;0.15;0.15;;;12.00;97.20;;;;;;5075191;28;20052;-72
2023/04/20 08:59:15;;;;;;;0.77;0.77;;;12.30;97.00;;;;;;5075185;28;20037;-72
2023/04/20 09:01:42;;;;;;;1.52;0.60;;;12.30;96.70;;;;;;5075486;28;20021;-72
2023/04/20 09:04:22;;;;;;;3.08;1.05;;;12.70;96.40;;;;;;5075314;28;20082;-72
2023/04/20 09:06:52;;;;;;;1.35;0.93;;;12.20;96.20;;;;;;5075143;28;20052;-72
2023/04/20 09:09:19;;;;;;;2.38;0.60;;;12.00;97.20;;;;;;5074986;28;20029;-73
2023/04/20 09:11:45;;;;;;;0.82;0.82;;;12.00;97.10;;;;;;5073630;28;20024;-72
2023/04/20 09:14:14;;;;;;;0.60;0.60;;;12.00;96.70;;;;;;5075297;28;20357;-72
2023/04/20 09:16:51;;;;;;;0.32;0.32;;;12.00;96.30;;;;;;5074953;28;20043;-72
2023/04/20 09:19:24;;;;;;;2.78;1.45;;;12.10;96.20;;;;;;5075308;28;20056;-72
2023/04/20 09:21:55;;;;;;;0.40;0.40;;;11.70;96.10;;;;;;5075017;28;20067;-72
2023/04/20 09:24:23;;;;;;;0.52;0.40;;;11.80;96.50;;;;;;5074428;28;20028;-72
2023/04/20 09:26:49;;;;;;;0.20;0.20;;;12.10;96.00;;;;;;5074662;28;20039;-72
2023/04/20 09:29:19;;;;;;;0.20;0.20;;;12.50;95.90;;;;;;5074888;28;20503;-72
2023/04/20 09:31:45;;;;;;;0.93;0.40;;;12.70;95.80;;;;;;5074775;28;20024;-71
2023/04/20 09:34:11;;;;;;;0.17;0.17;;;12.60;95.50;;;;;;5074845;28;20460;-72
2023/04/20 09:36:42;;;;;;;0.52;0.38;;;12.40;95.20;;;;;;5074837;28;20381;-72
2023/04/20 09:39:13;;;;;;;0.53;0.53;;;12.40;95.10;;;;;;5074167;28;20040;-72
2023/04/20 09:41:40;;;;;;;0.20;0.20;;;12.20;95.40;;;;;;5074424;28;20067;-71
2023/04/20 09:44:07;;;;;;;0.38;0.30;;;12.40;95.70;;;;;;5074765;28;20047;-72
2023/04/20 09:46:35;;;;;;;0.25;0.25;;;12.70;95.50;;;;;;5074439;28;20050;-72
2023/04/20 09:49:04;;;;;;;0.10;0.10;;;12.90;95.10;;;;;;5074494;28;20042;-71
2023/04/20 09:51:31;;;;;;;0.30;0.30;;;12.70;95.10;;;;;;5074270;28;20097;-72
2023/04/20 09:53:59;;;;;;;0.98;0.38;;;12.50;95.30;;;;;;5074060;28;20381;-71
2023/04/20 09:56:27;;;;;;;0.35;0.35;;;12.50;94.80;;;;;;5074227;28;20035;-71
2023/04/20 09:58:54;;;;;;;0.80;0.80;;;12.50;95.00;;;;;;5074488;28;20024;-71
2023/04/20 10:01:21;;;;;;;0.40;0.40;;;12.50;95.10;;;;;;5056126;28;20389;-72
2023/04/20 10:03:47;;;;;;;0.57;0.57;;;12.30;95.50;;;;;;5074333;28;20376;-71
2023/04/20 10:06:33;;;;;;;1.65;1.02;;;12.30;95.20;;;;;;5055895;28;20454;-72
2023/04/20 10:09:04;;;;;;;3.80;1.17;;;12.10;95.30;;;;;;5073972;28;20040;-72
2023/04/20 10:11:33;;;;;;;0.70;0.60;;;12.10;95.90;;;;;;5073551;28;20021;-71
2023/04/20 10:14:17;;;;;;;2.28;1.65;;;12.30;95.60;;;;;;5074193;28;20032;-72
2023/04/20 10:16:45;;;;;;;0.43;0.43;;;12.20;95.80;;;;;;5073748;28;20028;-71
2023/04/20 10:19:11;;;;;;;0.88;0.77;;;12.30;96.00;;;;;;5073851;28;20032;-71
2023/04/20 10:21:49;;;;;;;0.45;0.45;;;12.40;95.60;;;;;;5073425;28;20021;-72
2023/04/20 10:24:27;;;;;;;0.75;0.75;;;12.50;95.60;;;;;;5073462;28;20035;-71
2023/04/20 10:26:53;;;;;;;2.22;1.85;;;12.30;95.70;;;;;;5073374;28;20029;-72
2023/04/20 10:29:24;;;;;;;2.80;1.10;;;12.40;95.50;;;;;;5073510;28;20468;-72
2023/04/20 10:31:50;;;;;;;0.10;0.10;;;12.70;94.90;;;;;;5073533;28;20025;-72
2023/04/20 10:34:18;;;;;;;1.20;0.60;;;12.90;95.00;;;;;;5073331;28;20111;-71
2023/04/20 10:36:43;;;;;;;0.82;0.82;;;13.10;94.50;;;;;;5073017;28;20547;-71
2023/04/20 10:39:17;;;;;;;0.30;0.30;;;12.70;94.10;;;;;;5058609;28;20109;-72
2023/04/20 10:42:02;;;;;;;1.13;0.50;;;12.60;94.80;;;;;;5073373;28;20076;-72
2023/04/20 10:44:29;;;;;;;0.10;0.10;;;12.60;94.80;;;;;;5073138;28;20066;-72
2023/04/20 10:46:56;;;;;;;0.75;0.65;;;12.70;95.20;;;;;;5073176;28;20480;-72
2023/04/20 10:49:27;;;;;;;0.90;0.65;;;12.80;94.70;;;;;;5071563;28;20118;-72
2023/04/20 10:51:54;;;;;;;0.85;0.68;;;12.50;94.90;;;;;;5073054;28;20056;-72
2023/04/20 10:54:20;;;;;;;0.20;0.20;;;12.40;95.40;;;;;;5054324;28;20024;-71
2023/04/20 10:56:48;;;;;;;0.43;0.43;;;12.50;95.30;;;;;;5073272;28;20060;-71
2023/04/20 10:59:16;;;;;;;0.50;0.50;;;12.90;95.10;;;;;;5072919;28;20024;-72
2023/04/20 11:01:43;;;;;;;0.10;0.10;;;13.50;94.50;;;;;;5072458;28;20013;-71
2023/04/20 11:04:10;;;;;;;0.40;0.20;;;13.30;93.80;;;;;;5072980;28;20024;-72
2023/04/20 11:06:38;;;;;;;0.10;0.10;;;13.40;93.50;;;;;;5072671;28;20068;-71
2023/04/20 11:09:17;;;;;;;0.10;0.10;;;13.30;93.40;;;;;;5072649;28;20020;-72
2023/04/20 11:11:43;;;;;;;0.10;0.10;;;13.10;94.00;;;;;;5072866;28;20036;-72
2023/04/20 11:14:10;;;;;;;0.17;0.17;;;13.30;94.00;;;;;;5072835;28;20093;-72
2023/04/20 11:16:37;;;;;;;0.57;0.55;;;13.10;94.00;;;;;;5071445;28;20032;-71
2023/04/20 11:19:03;;;;;;;0.28;0.28;;;12.80;94.50;;;;;;5072767;28;20531;-72
2023/04/20 11:21:40;;;;;;;0.45;0.45;;;12.30;94.90;;;;;;5072355;28;20021;-71
2023/04/20 11:24:27;;;;;;;0.35;0.35;;;12.30;95.00;;;;;;5064564;28;20119;-71
2023/04/20 11:26:53;;;;;;;0.10;0.10;;;12.50;94.60;;;;;;5072773;28;20443;-72
2023/04/20 11:29:29;;;;;;;2.95;0.82;;;12.50;95.00;;;;;;5072758;28;20103;-71
2023/04/20 11:31:56;;;;;;;1.80;0.75;;;12.00;95.40;;;;;;5071340;28;20488;-71
2023/04/20 11:34:22;;;;;;;0.10;0.10;;;12.10;95.70;;;;;;5072526;28;20052;-71
2023/04/20 11:36:49;;;;;;;1.75;0.70;;;12.10;95.70;;;;;;5072627;28;20373;-72
2023/04/20 11:39:24;;;;;;;2.05;1.90;;;12.10;96.20;;;;;;5072111;28;20044;-71
2023/04/20 11:41:51;;;;;;;1.10;1.10;;;11.80;96.00;;;;;;5072813;28;20441;-71
2023/04/20 11:44:19;;;;;;;2.00;0.85;;;11.50;96.80;;;;;;5072172;28;20130;-72
2023/04/20 11:46:48;;;;;;;0.17;0.17;;;11.30;97.20;;;;;;5054623;28;20105;-72
2023/04/20 11:49:15;;;;;;;1.05;0.52;;;11.50;96.70;;;;;;5071909;28;20293;-72
2023/04/20 11:51:42;;;;;;;0.10;0.10;;;11.60;96.50;;;;;;5072656;28;20439;-72
2023/04/20 11:54:08;;;;;;;2.35;0.68;;;11.60;96.70;;;;;;5072419;28;20029;-72
2023/04/20 11:56:34;;;;;;;0.65;0.65;;;11.60;96.60;;;;;;5072388;28;20040;-72
2023/04/20 11:58:59;;;;;;;0.10;0.10;;;11.70;96.30;;;;;;5072173;28;20020;-71
2023/04/20 12:01:25;;;;;;;0.30;0.30;;;12.10;95.60;;;;;;5054205;28;20025;-72
2023/04/20 12:03:51;;;;;;;0.30;0.30;;;12.10;95.70;;;;;;5072055;28;20473;-71
2023/04/20 12:06:17;;;;;;;0.57;0.57;;;12.40;94.80;;;;;;5072186;28;20074;-72
2023/04/20 12:08:42;;;;;;;0.57;0.40;;;12.10;95.10;;;;;;5037460;28;20493;-72
2023/04/20 12:11:08;;;;;;;0.20;0.20;;;12.00;95.60;;;;;;5054101;28;20035;-72
2023/04/20 12:13:34;;;;;;;1.08;0.60;;;12.10;95.90;;;;;;5074302;28;20028;-73
2023/04/20 12:16:00;;;;;;;0.77;0.47;;;11.90;95.90;;;;;;5070967;28;20059;-73
2023/04/20 12:18:26;;;;;;;0.80;0.80;;;11.70;96.30;;;;;;5035403;28;20051;-73
2023/04/20 12:20:51;;;;;;;0.38;0.22;;;11.70;96.00;;;;;;5042350;28;20036;-72
2023/04/20 12:23:17;;;;;;;0.35;0.35;;;11.80;95.60;;;;;;5071370;28;20029;-73
2023/04/20 12:25:43;;;;;;;0.20;0.20;;;12.10;95.20;;;;;;5074934;28;20036;-72
2023/04/20 12:28:09;;;;;;;0.25;0.22;;;12.50;95.40;;;;;;5045662;28;20017;-72
2023/04/20 12:30:35;;;;;;;0.20;0.20;;;12.90;95.50;;;;;;5059227;28;20515;-72
2023/04/20 12:33:02;;;;;;;1.42;0.65;;;13.10;94.70;;;;;;5069931;28;20044;-71
2023/04/20 12:35:28;;;;;;;0.68;0.68;;;13.20;94.10;;;;;;5060383;28;20048;-71
2023/04/20 12:37:54;;;;;;;0.15;0.15;;;13.60;94.70;;;;;;5060897;28;20028;-72
2023/04/20 12:40:21;;;;;;;0.55;0.55;;;14.10;94.40;;;;;;5057945;28;20411;-72
2023/04/20 12:42:47;;;;;;;0.17;0.17;;;14.20;93.70;;;;;;5047204;28;20028;-71
2023/04/20 12:45:13;;;;;;;0.47;0.38;;;14.30;93.40;;;;;;5066615;28;20281;-73
2023/04/20 12:47:39;;;;;;;0.20;0.20;;;14.60;93.20;;;;;;5057776;28;20406;-72
2023/04/20 12:50:06;;;;;;;1.77;1.17;;;14.60;93.10;;;;;;5054557;28;20124;-72
2023/04/20 12:52:32;;;;;;;0.20;0.20;;;14.10;93.40;;;;;;5057495;28;20086;-72
2023/04/20 12:54:59;;;;;;;0.43;0.43;;;13.70;93.90;;;;;;5060349;28;20052;-72